sensor_id;sensor_type;location;lat;lon;timestamp;P1;durP1;ratioP1;P2;durP2;ratioP2
15486;SDS011;7845;53.698;10.078;2022-07-19T00:01:39;8.90;;;6.10;;
15486;SDS011;7845;53.698;10.078;2022-07-19T00:04:06;8.80;;;6.20;;
15486;SDS011;7845;53.698;10.078;2022-07-19T00:06:31;8.57;;;5.83;;
15486;SDS011;7845;53.698;10.078;2022-07-19T00:08:57;8.93;;;6.37;;
15486;SDS011;7845;53.698;10.078;2022-07-19T00:11:23;14.13;;;6.50;;
15486;SDS011;7845;53.698;10.078;2022-07-19T00:13:48;8.80;;;6.60;;
15486;SDS011;7845;53.698;10.078;2022-07-19T00:16:13;8.70;;;6.80;;
15486;SDS011;7845;53.698;10.078;2022-07-19T00:18:40;8.60;;;6.40;;
15486;SDS011;7845;53.698;10.078;2022-07-19T00:21:06;9.27;;;6.07;;
15486;SDS011;7845;53.698;10.078;2022-07-19T00:23:31;8.20;;;6.10;;
15486;SDS011;7845;53.698;10.078;2022-07-19T00:25:56;10.10;;;6.57;;
15486;SDS011;7845;53.698;10.078;2022-07-19T00:28:22;8.27;;;6.10;;
15486;SDS011;7845;53.698;10.078;2022-07-19T00:30:47;8.90;;;6.03;;
15486;SDS011;7845;53.698;10.078;2022-07-19T00:33:13;8.37;;;6.30;;
15486;SDS011;7845;53.698;10.078;2022-07-19T00:35:39;8.13;;;6.37;;
15486;SDS011;7845;53.698;10.078;2022-07-19T00:38:05;7.10;;;5.47;;
15486;SDS011;7845;53.698;10.078;2022-07-19T00:40:31;9.50;;;7.20;;
15486;SDS011;7845;53.698;10.078;2022-07-19T00:42:57;10.00;;;6.60;;
15486;SDS011;7845;53.698;10.078;2022-07-19T00:45:23;8.37;;;6.60;;
15486;SDS011;7845;53.698;10.078;2022-07-19T00:47:49;9.37;;;6.90;;
15486;SDS011;7845;53.698;10.078;2022-07-19T00:50:16;9.80;;;6.83;;
15486;SDS011;7845;53.698;10.078;2022-07-19T00:52:43;9.47;;;6.67;;
15486;SDS011;7845;53.698;10.078;2022-07-19T00:55:11;8.77;;;7.10;;
15486;SDS011;7845;53.698;10.078;2022-07-19T00:57:37;10.93;;;7.13;;
15486;SDS011;7845;53.698;10.078;2022-07-19T01:00:04;8.07;;;6.03;;
15486;SDS011;7845;53.698;10.078;2022-07-19T01:02:32;9.77;;;6.47;;
15486;SDS011;7845;53.698;10.078;2022-07-19T01:04:58;9.03;;;7.20;;
15486;SDS011;7845;53.698;10.078;2022-07-19T01:07:24;8.77;;;6.40;;
15486;SDS011;7845;53.698;10.078;2022-07-19T01:09:49;10.17;;;7.20;;
15486;SDS011;7845;53.698;10.078;2022-07-19T01:12:16;9.27;;;6.30;;
15486;SDS011;7845;53.698;10.078;2022-07-19T01:14:42;9.03;;;6.90;;
15486;SDS011;7845;53.698;10.078;2022-07-19T01:17:08;8.70;;;6.50;;
15486;SDS011;7845;53.698;10.078;2022-07-19T01:19:33;9.50;;;6.30;;
15486;SDS011;7845;53.698;10.078;2022-07-19T01:21:59;9.77;;;7.20;;
15486;SDS011;7845;53.698;10.078;2022-07-19T01:24:25;9.43;;;6.80;;
15486;SDS011;7845;53.698;10.078;2022-07-19T01:26:50;9.10;;;6.20;;
15486;SDS011;7845;53.698;10.078;2022-07-19T01:29:16;8.73;;;6.63;;
15486;SDS011;7845;53.698;10.078;2022-07-19T01:31:42;7.90;;;6.30;;
15486;SDS011;7845;53.698;10.078;2022-07-19T01:34:07;10.20;;;7.30;;
15486;SDS011;7845;53.698;10.078;2022-07-19T01:36:34;8.67;;;6.50;;
15486;SDS011;7845;53.698;10.078;2022-07-19T01:38:59;10.70;;;7.37;;
15486;SDS011;7845;53.698;10.078;2022-07-19T01:41:24;9.20;;;6.80;;
15486;SDS011;7845;53.698;10.078;2022-07-19T01:43:50;8.57;;;6.83;;
15486;SDS011;7845;53.698;10.078;2022-07-19T01:46:15;10.60;;;7.00;;
15486;SDS011;7845;53.698;10.078;2022-07-19T01:48:40;8.70;;;6.33;;
15486;SDS011;7845;53.698;10.078;2022-07-19T01:51:06;8.30;;;5.97;;
15486;SDS011;7845;53.698;10.078;2022-07-19T01:53:31;10.80;;;6.73;;
15486;SDS011;7845;53.698;10.078;2022-07-19T01:55:57;9.80;;;6.00;;
15486;SDS011;7845;53.698;10.078;2022-07-19T01:58:22;8.10;;;6.37;;
15486;SDS011;7845;53.698;10.078;2022-07-19T02:00:47;8.13;;;6.70;;
15486;SDS011;7845;53.698;10.078;2022-07-19T02:03:12;8.40;;;6.20;;
15486;SDS011;7845;53.698;10.078;2022-07-19T02:05:38;10.40;;;7.13;;
15486;SDS011;7845;53.698;10.078;2022-07-19T02:08:04;10.40;;;6.83;;
15486;SDS011;7845;53.698;10.078;2022-07-19T02:10:29;9.43;;;7.13;;
15486;SDS011;7845;53.698;10.078;2022-07-19T02:12:55;8.00;;;5.97;;
15486;SDS011;7845;53.698;10.078;2022-07-19T02:15:20;8.90;;;6.40;;
15486;SDS011;7845;53.698;10.078;2022-07-19T02:17:45;9.70;;;6.03;;
15486;SDS011;7845;53.698;10.078;2022-07-19T02:20:11;10.03;;;6.30;;
15486;SDS011;7845;53.698;10.078;2022-07-19T02:22:37;8.60;;;6.17;;
15486;SDS011;7845;53.698;10.078;2022-07-19T02:25:03;8.37;;;6.17;;
15486;SDS011;7845;53.698;10.078;2022-07-19T02:27:29;8.57;;;6.37;;
15486;SDS011;7845;53.698;10.078;2022-07-19T02:30:04;8.90;;;6.40;;
15486;SDS011;7845;53.698;10.078;2022-07-19T02:32:32;11.07;;;6.30;;
15486;SDS011;7845;53.698;10.078;2022-07-19T02:34:58;9.13;;;5.80;;
15486;SDS011;7845;53.698;10.078;2022-07-19T02:37:23;8.40;;;6.13;;
15486;SDS011;7845;53.698;10.078;2022-07-19T02:39:49;8.13;;;5.83;;
15486;SDS011;7845;53.698;10.078;2022-07-19T02:42:14;8.17;;;5.87;;
15486;SDS011;7845;53.698;10.078;2022-07-19T02:44:39;9.30;;;6.53;;
15486;SDS011;7845;53.698;10.078;2022-07-19T02:47:05;10.90;;;6.20;;
15486;SDS011;7845;53.698;10.078;2022-07-19T02:49:31;8.07;;;6.60;;
15486;SDS011;7845;53.698;10.078;2022-07-19T02:52:02;8.80;;;6.30;;
15486;SDS011;7845;53.698;10.078;2022-07-19T02:54:28;7.97;;;5.80;;
15486;SDS011;7845;53.698;10.078;2022-07-19T02:56:53;7.60;;;6.10;;
15486;SDS011;7845;53.698;10.078;2022-07-19T02:59:19;8.23;;;6.47;;
15486;SDS011;7845;53.698;10.078;2022-07-19T03:01:44;8.33;;;6.37;;
15486;SDS011;7845;53.698;10.078;2022-07-19T03:04:12;8.20;;;6.20;;
15486;SDS011;7845;53.698;10.078;2022-07-19T03:06:37;8.20;;;6.30;;
15486;SDS011;7845;53.698;10.078;2022-07-19T03:09:02;8.50;;;5.60;;
15486;SDS011;7845;53.698;10.078;2022-07-19T03:11:28;7.30;;;5.63;;
15486;SDS011;7845;53.698;10.078;2022-07-19T03:13:53;8.17;;;5.60;;
15486;SDS011;7845;53.698;10.078;2022-07-19T03:16:18;8.00;;;6.10;;
15486;SDS011;7845;53.698;10.078;2022-07-19T03:18:45;8.40;;;6.13;;
15486;SDS011;7845;53.698;10.078;2022-07-19T03:21:16;8.07;;;5.60;;
15486;SDS011;7845;53.698;10.078;2022-07-19T03:23:41;8.50;;;5.90;;
15486;SDS011;7845;53.698;10.078;2022-07-19T03:26:07;8.70;;;6.10;;
15486;SDS011;7845;53.698;10.078;2022-07-19T03:28:32;7.57;;;5.87;;
15486;SDS011;7845;53.698;10.078;2022-07-19T03:30:58;9.90;;;6.40;;
15486;SDS011;7845;53.698;10.078;2022-07-19T03:33:24;7.97;;;5.90;;
15486;SDS011;7845;53.698;10.078;2022-07-19T03:35:49;7.93;;;6.10;;
15486;SDS011;7845;53.698;10.078;2022-07-19T03:38:15;8.20;;;5.37;;
15486;SDS011;7845;53.698;10.078;2022-07-19T03:40:40;9.37;;;6.17;;
15486;SDS011;7845;53.698;10.078;2022-07-19T03:43:06;7.10;;;5.40;;
15486;SDS011;7845;53.698;10.078;2022-07-19T03:45:33;8.90;;;6.23;;
15486;SDS011;7845;53.698;10.078;2022-07-19T03:47:59;8.23;;;5.97;;
15486;SDS011;7845;53.698;10.078;2022-07-19T03:50:25;10.07;;;6.40;;
15486;SDS011;7845;53.698;10.078;2022-07-19T03:52:51;7.50;;;5.60;;
15486;SDS011;7845;53.698;10.078;2022-07-19T03:55:16;8.80;;;6.10;;
15486;SDS011;7845;53.698;10.078;2022-07-19T03:57:42;10.53;;;6.20;;
15486;SDS011;7845;53.698;10.078;2022-07-19T04:00:07;7.47;;;5.80;;
15486;SDS011;7845;53.698;10.078;2022-07-19T04:02:33;8.73;;;6.13;;
15486;SDS011;7845;53.698;10.078;2022-07-19T04:04:58;8.83;;;5.93;;
15486;SDS011;7845;53.698;10.078;2022-07-19T04:07:23;11.87;;;5.90;;
15486;SDS011;7845;53.698;10.078;2022-07-19T04:09:49;8.17;;;5.90;;
15486;SDS011;7845;53.698;10.078;2022-07-19T04:12:14;7.10;;;5.00;;
15486;SDS011;7845;53.698;10.078;2022-07-19T04:14:39;7.83;;;5.80;;
15486;SDS011;7845;53.698;10.078;2022-07-19T04:17:05;8.40;;;5.30;;
15486;SDS011;7845;53.698;10.078;2022-07-19T04:19:31;9.23;;;5.90;;
15486;SDS011;7845;53.698;10.078;2022-07-19T04:21:56;7.70;;;5.57;;
15486;SDS011;7845;53.698;10.078;2022-07-19T04:24:22;8.87;;;5.60;;
15486;SDS011;7845;53.698;10.078;2022-07-19T04:26:47;7.80;;;5.73;;
15486;SDS011;7845;53.698;10.078;2022-07-19T04:29:13;7.90;;;6.07;;
15486;SDS011;7845;53.698;10.078;2022-07-19T04:31:38;7.80;;;5.53;;
15486;SDS011;7845;53.698;10.078;2022-07-19T04:34:04;7.83;;;5.53;;
15486;SDS011;7845;53.698;10.078;2022-07-19T04:36:29;8.20;;;5.73;;
15486;SDS011;7845;53.698;10.078;2022-07-19T04:38:54;7.33;;;5.20;;
15486;SDS011;7845;53.698;10.078;2022-07-19T04:41:20;7.30;;;4.90;;
15486;SDS011;7845;53.698;10.078;2022-07-19T04:43:45;7.63;;;5.10;;
15486;SDS011;7845;53.698;10.078;2022-07-19T04:46:10;7.07;;;4.90;;
15486;SDS011;7845;53.698;10.078;2022-07-19T04:48:36;6.60;;;4.77;;
15486;SDS011;7845;53.698;10.078;2022-07-19T04:51:01;6.70;;;4.03;;
15486;SDS011;7845;53.698;10.078;2022-07-19T04:53:26;6.40;;;4.73;;
15486;SDS011;7845;53.698;10.078;2022-07-19T04:55:52;6.70;;;4.57;;
15486;SDS011;7845;53.698;10.078;2022-07-19T04:58:18;6.97;;;5.07;;
15486;SDS011;7845;53.698;10.078;2022-07-19T05:00:43;7.20;;;5.40;;
15486;SDS011;7845;53.698;10.078;2022-07-19T05:03:08;6.80;;;5.20;;
15486;SDS011;7845;53.698;10.078;2022-07-19T05:05:34;6.93;;;5.30;;
15486;SDS011;7845;53.698;10.078;2022-07-19T05:07:59;8.97;;;5.27;;
15486;SDS011;7845;53.698;10.078;2022-07-19T05:10:25;6.20;;;4.80;;
15486;SDS011;7845;53.698;10.078;2022-07-19T05:12:50;7.13;;;5.13;;
15486;SDS011;7845;53.698;10.078;2022-07-19T05:15:15;6.93;;;5.00;;
15486;SDS011;7845;53.698;10.078;2022-07-19T05:17:41;9.03;;;5.13;;
15486;SDS011;7845;53.698;10.078;2022-07-19T05:20:07;6.83;;;5.20;;
15486;SDS011;7845;53.698;10.078;2022-07-19T05:22:33;7.27;;;5.83;;
15486;SDS011;7845;53.698;10.078;2022-07-19T05:24:59;6.67;;;5.30;;
15486;SDS011;7845;53.698;10.078;2022-07-19T05:27:24;9.37;;;6.33;;
15486;SDS011;7845;53.698;10.078;2022-07-19T05:29:49;7.70;;;5.87;;
15486;SDS011;7845;53.698;10.078;2022-07-19T05:32:15;8.13;;;5.60;;
15486;SDS011;7845;53.698;10.078;2022-07-19T05:34:40;7.90;;;5.57;;
15486;SDS011;7845;53.698;10.078;2022-07-19T05:37:06;8.47;;;5.70;;
15486;SDS011;7845;53.698;10.078;2022-07-19T05:39:32;6.50;;;5.23;;
15486;SDS011;7845;53.698;10.078;2022-07-19T05:41:57;9.10;;;5.90;;
15486;SDS011;7845;53.698;10.078;2022-07-19T05:44:22;8.37;;;5.50;;
15486;SDS011;7845;53.698;10.078;2022-07-19T05:46:48;7.20;;;5.63;;
15486;SDS011;7845;53.698;10.078;2022-07-19T05:49:13;7.77;;;6.03;;
15486;SDS011;7845;53.698;10.078;2022-07-19T05:51:39;8.37;;;5.53;;
15486;SDS011;7845;53.698;10.078;2022-07-19T05:54:05;8.70;;;5.67;;
15486;SDS011;7845;53.698;10.078;2022-07-19T05:56:31;8.10;;;5.60;;
15486;SDS011;7845;53.698;10.078;2022-07-19T05:58:57;7.60;;;5.53;;
15486;SDS011;7845;53.698;10.078;2022-07-19T06:01:22;8.77;;;6.20;;
15486;SDS011;7845;53.698;10.078;2022-07-19T06:03:49;9.33;;;6.17;;
15486;SDS011;7845;53.698;10.078;2022-07-19T06:06:17;8.90;;;6.03;;
15486;SDS011;7845;53.698;10.078;2022-07-19T06:08:43;8.80;;;6.57;;
15486;SDS011;7845;53.698;10.078;2022-07-19T06:11:09;8.23;;;5.60;;
15486;SDS011;7845;53.698;10.078;2022-07-19T06:13:35;10.10;;;6.10;;
15486;SDS011;7845;53.698;10.078;2022-07-19T06:16:02;8.10;;;5.10;;
15486;SDS011;7845;53.698;10.078;2022-07-19T06:18:28;10.30;;;6.60;;
15486;SDS011;7845;53.698;10.078;2022-07-19T06:20:59;7.73;;;5.60;;
15486;SDS011;7845;53.698;10.078;2022-07-19T06:23:35;9.27;;;5.73;;
15486;SDS011;7845;53.698;10.078;2022-07-19T06:26:02;7.80;;;5.10;;
15486;SDS011;7845;53.698;10.078;2022-07-19T06:28:28;8.70;;;5.43;;
15486;SDS011;7845;53.698;10.078;2022-07-19T06:30:53;7.50;;;5.67;;
15486;SDS011;7845;53.698;10.078;2022-07-19T06:33:19;6.80;;;5.20;;
15486;SDS011;7845;53.698;10.078;2022-07-19T06:35:44;8.53;;;5.63;;
15486;SDS011;7845;53.698;10.078;2022-07-19T06:38:10;7.60;;;5.20;;
15486;SDS011;7845;53.698;10.078;2022-07-19T06:40:36;7.80;;;5.23;;
15486;SDS011;7845;53.698;10.078;2022-07-19T06:43:01;6.80;;;5.50;;
15486;SDS011;7845;53.698;10.078;2022-07-19T06:45:27;8.27;;;5.90;;
15486;SDS011;7845;53.698;10.078;2022-07-19T06:47:53;8.07;;;5.10;;
15486;SDS011;7845;53.698;10.078;2022-07-19T06:50:18;9.07;;;5.60;;
15486;SDS011;7845;53.698;10.078;2022-07-19T06:52:44;9.70;;;5.70;;
15486;SDS011;7845;53.698;10.078;2022-07-19T06:55:09;6.93;;;5.27;;
15486;SDS011;7845;53.698;10.078;2022-07-19T06:57:35;7.17;;;5.53;;
15486;SDS011;7845;53.698;10.078;2022-07-19T07:00:00;6.73;;;5.10;;
15486;SDS011;7845;53.698;10.078;2022-07-19T07:02:26;9.07;;;5.30;;
15486;SDS011;7845;53.698;10.078;2022-07-19T07:04:51;7.90;;;6.03;;
15486;SDS011;7845;53.698;10.078;2022-07-19T07:07:17;8.23;;;5.57;;
15486;SDS011;7845;53.698;10.078;2022-07-19T07:09:42;8.33;;;5.70;;
15486;SDS011;7845;53.698;10.078;2022-07-19T07:12:08;7.20;;;5.00;;
15486;SDS011;7845;53.698;10.078;2022-07-19T07:14:33;6.80;;;5.07;;
15486;SDS011;7845;53.698;10.078;2022-07-19T07:16:59;6.90;;;5.87;;
15486;SDS011;7845;53.698;10.078;2022-07-19T07:19:24;7.23;;;4.37;;
15486;SDS011;7845;53.698;10.078;2022-07-19T07:21:50;7.07;;;4.97;;
15486;SDS011;7845;53.698;10.078;2022-07-19T07:24:16;8.10;;;5.07;;
15486;SDS011;7845;53.698;10.078;2022-07-19T07:26:41;6.47;;;4.70;;
15486;SDS011;7845;53.698;10.078;2022-07-19T07:29:06;6.50;;;4.87;;
15486;SDS011;7845;53.698;10.078;2022-07-19T07:31:32;9.73;;;5.23;;
15486;SDS011;7845;53.698;10.078;2022-07-19T07:33:57;6.57;;;4.90;;
15486;SDS011;7845;53.698;10.078;2022-07-19T07:36:22;9.00;;;5.57;;
15486;SDS011;7845;53.698;10.078;2022-07-19T07:38:48;6.20;;;4.43;;
15486;SDS011;7845;53.698;10.078;2022-07-19T07:41:13;7.17;;;4.63;;
15486;SDS011;7845;53.698;10.078;2022-07-19T07:43:39;6.90;;;4.80;;
15486;SDS011;7845;53.698;10.078;2022-07-19T07:46:04;6.20;;;4.60;;
15486;SDS011;7845;53.698;10.078;2022-07-19T07:48:30;6.30;;;5.10;;
15486;SDS011;7845;53.698;10.078;2022-07-19T07:50:55;6.97;;;4.60;;
15486;SDS011;7845;53.698;10.078;2022-07-19T07:53:21;8.07;;;5.57;;
15486;SDS011;7845;53.698;10.078;2022-07-19T07:55:46;5.93;;;4.30;;
15486;SDS011;7845;53.698;10.078;2022-07-19T07:58:11;5.23;;;4.47;;
15486;SDS011;7845;53.698;10.078;2022-07-19T08:00:38;6.83;;;5.00;;
15486;SDS011;7845;53.698;10.078;2022-07-19T08:03:04;7.10;;;4.80;;
15486;SDS011;7845;53.698;10.078;2022-07-19T08:05:30;7.40;;;4.57;;
15486;SDS011;7845;53.698;10.078;2022-07-19T08:07:57;6.87;;;4.40;;
15486;SDS011;7845;53.698;10.078;2022-07-19T08:10:24;7.10;;;4.83;;
15486;SDS011;7845;53.698;10.078;2022-07-19T08:12:52;6.53;;;4.17;;
15486;SDS011;7845;53.698;10.078;2022-07-19T08:15:18;9.07;;;4.60;;
15486;SDS011;7845;53.698;10.078;2022-07-19T08:17:43;6.30;;;4.67;;
15486;SDS011;7845;53.698;10.078;2022-07-19T08:20:09;9.10;;;4.80;;
15486;SDS011;7845;53.698;10.078;2022-07-19T08:22:34;8.07;;;4.50;;
15486;SDS011;7845;53.698;10.078;2022-07-19T08:25:00;6.30;;;4.97;;
15486;SDS011;7845;53.698;10.078;2022-07-19T08:27:25;9.03;;;4.43;;
15486;SDS011;7845;53.698;10.078;2022-07-19T08:29:51;6.37;;;4.63;;
15486;SDS011;7845;53.698;10.078;2022-07-19T08:32:16;5.40;;;4.10;;
15486;SDS011;7845;53.698;10.078;2022-07-19T08:34:41;6.30;;;4.67;;
15486;SDS011;7845;53.698;10.078;2022-07-19T08:37:07;7.63;;;4.97;;
15486;SDS011;7845;53.698;10.078;2022-07-19T08:39:32;9.13;;;5.37;;
15486;SDS011;7845;53.698;10.078;2022-07-19T08:41:57;6.30;;;4.87;;
15486;SDS011;7845;53.698;10.078;2022-07-19T08:44:23;5.30;;;4.03;;
15486;SDS011;7845;53.698;10.078;2022-07-19T08:46:49;7.60;;;4.57;;
15486;SDS011;7845;53.698;10.078;2022-07-19T08:49:15;8.13;;;4.57;;
15486;SDS011;7845;53.698;10.078;2022-07-19T08:51:43;6.73;;;4.63;;
15486;SDS011;7845;53.698;10.078;2022-07-19T08:54:09;7.37;;;4.83;;
15486;SDS011;7845;53.698;10.078;2022-07-19T08:56:34;6.50;;;4.70;;
15486;SDS011;7845;53.698;10.078;2022-07-19T08:59:18;6.50;;;4.50;;
15486;SDS011;7845;53.698;10.078;2022-07-19T09:01:45;6.07;;;3.83;;
15486;SDS011;7845;53.698;10.078;2022-07-19T09:04:14;5.37;;;4.50;;
15486;SDS011;7845;53.698;10.078;2022-07-19T09:06:48;6.07;;;4.60;;
15486;SDS011;7845;53.698;10.078;2022-07-19T09:09:15;7.00;;;5.07;;
15486;SDS011;7845;53.698;10.078;2022-07-19T09:11:44;7.33;;;4.57;;
15486;SDS011;7845;53.698;10.078;2022-07-19T09:14:14;7.27;;;4.40;;
15486;SDS011;7845;53.698;10.078;2022-07-19T09:19:27;5.50;;;3.90;;
15486;SDS011;7845;53.698;10.078;2022-07-19T09:21:59;5.70;;;3.80;;
15486;SDS011;7845;53.698;10.078;2022-07-19T09:24:39;6.40;;;4.40;;
15486;SDS011;7845;53.698;10.078;2022-07-19T09:27:07;4.80;;;3.67;;
15486;SDS011;7845;53.698;10.078;2022-07-19T09:29:35;6.40;;;4.10;;
15486;SDS011;7845;53.698;10.078;2022-07-19T09:32:10;6.47;;;3.90;;
15486;SDS011;7845;53.698;10.078;2022-07-19T09:37:21;6.10;;;4.23;;
15486;SDS011;7845;53.698;10.078;2022-07-19T09:39:49;6.30;;;3.67;;
15486;SDS011;7845;53.698;10.078;2022-07-19T09:42:20;5.60;;;4.03;;
15486;SDS011;7845;53.698;10.078;2022-07-19T09:44:56;6.20;;;3.57;;
15486;SDS011;7845;53.698;10.078;2022-07-19T09:47:30;6.30;;;3.63;;
15486;SDS011;7845;53.698;10.078;2022-07-19T09:49:56;6.03;;;4.10;;
15486;SDS011;7845;53.698;10.078;2022-07-19T09:52:22;6.70;;;4.10;;
15486;SDS011;7845;53.698;10.078;2022-07-19T09:54:49;8.17;;;4.20;;
15486;SDS011;7845;53.698;10.078;2022-07-19T09:57:16;4.57;;;3.33;;
15486;SDS011;7845;53.698;10.078;2022-07-19T09:59:49;6.17;;;4.00;;
15486;SDS011;7845;53.698;10.078;2022-07-19T10:02:16;5.37;;;3.97;;
15486;SDS011;7845;53.698;10.078;2022-07-19T10:04:46;6.30;;;3.90;;
15486;SDS011;7845;53.698;10.078;2022-07-19T10:07:11;6.80;;;4.03;;
15486;SDS011;7845;53.698;10.078;2022-07-19T10:09:38;4.90;;;3.40;;
15486;SDS011;7845;53.698;10.078;2022-07-19T10:12:04;6.67;;;3.80;;
15486;SDS011;7845;53.698;10.078;2022-07-19T10:14:30;7.00;;;4.40;;
15486;SDS011;7845;53.698;10.078;2022-07-19T10:22:11;7.43;;;3.90;;
15486;SDS011;7845;53.698;10.078;2022-07-19T10:24:42;4.50;;;3.00;;
15486;SDS011;7845;53.698;10.078;2022-07-19T10:27:08;4.90;;;3.27;;
15486;SDS011;7845;53.698;10.078;2022-07-19T10:29:34;5.20;;;3.37;;
15486;SDS011;7845;53.698;10.078;2022-07-19T10:32:09;5.50;;;3.63;;
15486;SDS011;7845;53.698;10.078;2022-07-19T10:34:36;6.23;;;3.60;;
15486;SDS011;7845;53.698;10.078;2022-07-19T10:37:02;4.70;;;3.30;;
15486;SDS011;7845;53.698;10.078;2022-07-19T10:39:37;8.60;;;3.63;;
15486;SDS011;7845;53.698;10.078;2022-07-19T10:50:02;5.40;;;4.00;;
15486;SDS011;7845;53.698;10.078;2022-07-19T10:57:53;5.80;;;3.87;;
15486;SDS011;7845;53.698;10.078;2022-07-19T11:00:31;6.10;;;3.60;;
15486;SDS011;7845;53.698;10.078;2022-07-19T11:03:42;4.10;;;3.23;;
15486;SDS011;7845;53.698;10.078;2022-07-19T11:06:02;5.10;;;3.27;;
15486;SDS011;7845;53.698;10.078;2022-07-19T11:08:36;4.73;;;3.17;;
15486;SDS011;7845;53.698;10.078;2022-07-19T11:13:35;5.07;;;3.17;;
15486;SDS011;7845;53.698;10.078;2022-07-19T11:16:01;4.97;;;3.23;;
15486;SDS011;7845;53.698;10.078;2022-07-19T11:18:28;6.53;;;4.40;;
15486;SDS011;7845;53.698;10.078;2022-07-19T11:20:58;4.57;;;3.13;;
15486;SDS011;7845;53.698;10.078;2022-07-19T11:23:28;4.63;;;2.80;;
15486;SDS011;7845;53.698;10.078;2022-07-19T11:26:07;5.50;;;3.20;;
15486;SDS011;7845;53.698;10.078;2022-07-19T11:28:39;4.30;;;3.00;;
15486;SDS011;7845;53.698;10.078;2022-07-19T11:31:17;6.13;;;3.57;;
15486;SDS011;7845;53.698;10.078;2022-07-19T11:33:46;4.20;;;3.03;;
15486;SDS011;7845;53.698;10.078;2022-07-19T11:36:13;4.90;;;2.83;;
15486;SDS011;7845;53.698;10.078;2022-07-19T11:38:43;7.23;;;3.60;;
15486;SDS011;7845;53.698;10.078;2022-07-19T11:41:14;6.40;;;3.50;;
15486;SDS011;7845;53.698;10.078;2022-07-19T11:43:41;5.20;;;3.03;;
15486;SDS011;7845;53.698;10.078;2022-07-19T11:46:07;4.13;;;2.70;;
15486;SDS011;7845;53.698;10.078;2022-07-19T11:48:32;5.73;;;2.70;;
15486;SDS011;7845;53.698;10.078;2022-07-19T11:51:07;5.00;;;3.37;;
15486;SDS011;7845;53.698;10.078;2022-07-19T11:53:35;4.10;;;2.60;;
15486;SDS011;7845;53.698;10.078;2022-07-19T11:56:02;4.00;;;2.83;;
15486;SDS011;7845;53.698;10.078;2022-07-19T11:58:29;4.23;;;2.30;;
15486;SDS011;7845;53.698;10.078;2022-07-19T12:01:02;4.70;;;2.77;;
15486;SDS011;7845;53.698;10.078;2022-07-19T12:03:29;4.53;;;2.90;;
15486;SDS011;7845;53.698;10.078;2022-07-19T12:05:56;4.20;;;2.83;;
15486;SDS011;7845;53.698;10.078;2022-07-19T12:08:34;4.40;;;3.00;;
15486;SDS011;7845;53.698;10.078;2022-07-19T12:11:20;3.97;;;2.70;;
15486;SDS011;7845;53.698;10.078;2022-07-19T12:13:46;6.40;;;3.03;;
15486;SDS011;7845;53.698;10.078;2022-07-19T12:16:13;4.10;;;2.50;;
15486;SDS011;7845;53.698;10.078;2022-07-19T12:18:43;4.07;;;2.80;;
15486;SDS011;7845;53.698;10.078;2022-07-19T12:29:33;3.47;;;2.37;;
15486;SDS011;7845;53.698;10.078;2022-07-19T12:32:06;4.13;;;2.17;;
15486;SDS011;7845;53.698;10.078;2022-07-19T12:39:55;3.70;;;2.67;;
15486;SDS011;7845;53.698;10.078;2022-07-19T12:42:26;6.10;;;2.30;;
15486;SDS011;7845;53.698;10.078;2022-07-19T12:44:59;4.43;;;2.80;;
15486;SDS011;7845;53.698;10.078;2022-07-19T12:47:25;4.60;;;2.93;;
15486;SDS011;7845;53.698;10.078;2022-07-19T12:49:50;4.80;;;2.87;;
15486;SDS011;7845;53.698;10.078;2022-07-19T12:52:15;4.03;;;2.67;;
15486;SDS011;7845;53.698;10.078;2022-07-19T12:54:41;4.27;;;2.90;;
15486;SDS011;7845;53.698;10.078;2022-07-19T12:57:06;5.03;;;2.73;;
15486;SDS011;7845;53.698;10.078;2022-07-19T12:59:32;4.03;;;2.50;;
15486;SDS011;7845;53.698;10.078;2022-07-19T13:02:10;3.50;;;2.13;;
15486;SDS011;7845;53.698;10.078;2022-07-19T13:04:39;4.07;;;2.50;;
15486;SDS011;7845;53.698;10.078;2022-07-19T13:07:05;4.27;;;2.07;;
15486;SDS011;7845;53.698;10.078;2022-07-19T13:09:31;6.80;;;3.20;;
15486;SDS011;7845;53.698;10.078;2022-07-19T13:11:59;5.13;;;2.33;;
15486;SDS011;7845;53.698;10.078;2022-07-19T13:14:24;4.20;;;2.80;;
15486;SDS011;7845;53.698;10.078;2022-07-19T13:16:50;4.63;;;2.70;;
15486;SDS011;7845;53.698;10.078;2022-07-19T13:19:15;4.50;;;3.00;;
15486;SDS011;7845;53.698;10.078;2022-07-19T13:21:41;4.03;;;2.63;;
15486;SDS011;7845;53.698;10.078;2022-07-19T13:24:06;5.47;;;2.93;;
15486;SDS011;7845;53.698;10.078;2022-07-19T13:26:31;4.80;;;2.80;;
15486;SDS011;7845;53.698;10.078;2022-07-19T13:28:56;5.90;;;2.60;;
15486;SDS011;7845;53.698;10.078;2022-07-19T13:31:22;3.53;;;2.30;;
15486;SDS011;7845;53.698;10.078;2022-07-19T13:33:47;3.57;;;2.67;;
15486;SDS011;7845;53.698;10.078;2022-07-19T13:36:12;4.60;;;2.80;;
15486;SDS011;7845;53.698;10.078;2022-07-19T13:38:38;3.93;;;2.40;;
15486;SDS011;7845;53.698;10.078;2022-07-19T13:41:06;3.93;;;2.30;;
15486;SDS011;7845;53.698;10.078;2022-07-19T13:43:31;5.13;;;2.77;;
15486;SDS011;7845;53.698;10.078;2022-07-19T13:45:57;4.37;;;2.47;;
15486;SDS011;7845;53.698;10.078;2022-07-19T13:48:24;4.50;;;2.20;;
15486;SDS011;7845;53.698;10.078;2022-07-19T13:50:49;6.50;;;2.67;;
15486;SDS011;7845;53.698;10.078;2022-07-19T13:53:15;4.13;;;2.37;;
15486;SDS011;7845;53.698;10.078;2022-07-19T13:55:40;4.30;;;2.43;;
15486;SDS011;7845;53.698;10.078;2022-07-19T13:58:05;2.90;;;2.00;;
15486;SDS011;7845;53.698;10.078;2022-07-19T14:00:31;4.07;;;2.00;;
15486;SDS011;7845;53.698;10.078;2022-07-19T14:02:57;7.20;;;2.33;;
15486;SDS011;7845;53.698;10.078;2022-07-19T14:05:22;7.50;;;2.07;;
15486;SDS011;7845;53.698;10.078;2022-07-19T14:07:47;3.37;;;2.00;;
15486;SDS011;7845;53.698;10.078;2022-07-19T14:10:13;4.10;;;2.30;;
15486;SDS011;7845;53.698;10.078;2022-07-19T14:12:39;5.00;;;2.37;;
15486;SDS011;7845;53.698;10.078;2022-07-19T14:15:04;3.60;;;2.33;;
15486;SDS011;7845;53.698;10.078;2022-07-19T14:17:31;3.63;;;2.40;;
15486;SDS011;7845;53.698;10.078;2022-07-19T14:19:56;4.30;;;2.30;;
15486;SDS011;7845;53.698;10.078;2022-07-19T14:22:21;4.10;;;2.10;;
15486;SDS011;7845;53.698;10.078;2022-07-19T14:24:47;3.30;;;2.27;;
15486;SDS011;7845;53.698;10.078;2022-07-19T14:27:12;7.07;;;2.47;;
15486;SDS011;7845;53.698;10.078;2022-07-19T14:29:37;3.10;;;2.10;;
15486;SDS011;7845;53.698;10.078;2022-07-19T14:32:02;4.40;;;2.43;;
15486;SDS011;7845;53.698;10.078;2022-07-19T14:34:28;4.23;;;2.50;;
15486;SDS011;7845;53.698;10.078;2022-07-19T14:36:53;5.50;;;2.27;;
15486;SDS011;7845;53.698;10.078;2022-07-19T14:39:19;5.87;;;2.60;;
15486;SDS011;7845;53.698;10.078;2022-07-19T14:41:44;4.00;;;2.40;;
15486;SDS011;7845;53.698;10.078;2022-07-19T14:44:10;4.67;;;2.30;;
15486;SDS011;7845;53.698;10.078;2022-07-19T14:46:35;4.00;;;2.43;;
15486;SDS011;7845;53.698;10.078;2022-07-19T14:49:00;6.00;;;2.40;;
15486;SDS011;7845;53.698;10.078;2022-07-19T14:51:26;6.13;;;3.30;;
15486;SDS011;7845;53.698;10.078;2022-07-19T14:53:51;4.03;;;2.37;;
15486;SDS011;7845;53.698;10.078;2022-07-19T14:56:16;3.90;;;2.67;;
15486;SDS011;7845;53.698;10.078;2022-07-19T14:58:42;7.93;;;3.10;;
15486;SDS011;7845;53.698;10.078;2022-07-19T15:01:07;8.10;;;2.87;;
15486;SDS011;7845;53.698;10.078;2022-07-19T15:03:33;5.30;;;2.67;;
15486;SDS011;7845;53.698;10.078;2022-07-19T15:06:00;4.07;;;2.50;;
15486;SDS011;7845;53.698;10.078;2022-07-19T15:08:25;3.47;;;2.00;;
15486;SDS011;7845;53.698;10.078;2022-07-19T15:10:51;3.93;;;2.50;;
15486;SDS011;7845;53.698;10.078;2022-07-19T15:13:17;5.00;;;2.50;;
15486;SDS011;7845;53.698;10.078;2022-07-19T15:15:42;5.17;;;2.30;;
15486;SDS011;7845;53.698;10.078;2022-07-19T15:18:07;7.27;;;2.30;;
15486;SDS011;7845;53.698;10.078;2022-07-19T15:20:33;4.00;;;2.60;;
15486;SDS011;7845;53.698;10.078;2022-07-19T15:22:58;5.40;;;2.70;;
15486;SDS011;7845;53.698;10.078;2022-07-19T15:25:24;4.57;;;2.60;;